Time;durP1;ratioP1;P1;durP2;ratioP2;P2;SDS_P1;SDS_P2;PMS_P1;PMS_P2;Temp;Humidity;BMP_temperature;BMP_pressure;BME280_temperature;BME280_humidity;BME280_pressure;Samples;Min_cycle;Max_cycle;Signal;HPM_P1;HPM_P2
2022/09/30 00:01:28;;;;;;;4.35;1.65;;;17.70;78.70;;;;;;5092667;28;20038;-69
2022/09/30 00:03:54;;;;;;;5.80;1.90;;;17.70;78.70;;;;;;5093013;28;20477;-69
2022/09/30 00:06:20;;;;;;;10.90;1.80;;;17.70;78.70;;;;;;5075078;28;20398;-69
2022/09/30 00:08:46;;;;;;;3.45;1.52;;;17.60;78.70;;;;;;5091764;28;20028;-69
2022/09/30 00:11:19;;;;;;;4.57;1.80;;;17.60;78.70;;;;;;5074946;28;20027;-69
2022/09/30 00:13:46;;;;;;;3.95;1.60;;;17.60;78.70;;;;;;5091553;28;20016;-69
2022/09/30 00:16:12;;;;;;;5.05;1.77;;;17.60;78.70;;;;;;5092968;28;20081;-69
2022/09/30 00:18:38;;;;;;;5.40;1.90;;;17.60;78.70;;;;;;5084725;28;20111;-70
2022/09/30 00:21:04;;;;;;;3.42;1.77;;;17.60;78.80;;;;;;5089029;28;20020;-70
2022/09/30 00:23:30;;;;;;;3.25;1.83;;;17.60;78.80;;;;;;5088549;28;20017;-70
2022/09/30 00:26:01;;;;;;;5.05;1.40;;;17.60;78.80;;;;;;5090625;28;20445;-70
2022/09/30 00:28:27;;;;;;;8.75;2.10;;;17.60;78.80;;;;;;5088637;28;20024;-70
2022/09/30 00:30:53;;;;;;;7.20;1.80;;;17.60;78.90;;;;;;5089912;28;20107;-70
2022/09/30 00:33:19;;;;;;;6.00;1.50;;;17.60;78.90;;;;;;5090198;28;20385;-70
2022/09/30 00:35:45;;;;;;;3.85;1.40;;;17.60;78.90;;;;;;5088696;28;20025;-70
2022/09/30 00:38:10;;;;;;;4.63;1.70;;;17.60;78.90;;;;;;5089977;28;20016;-70
2022/09/30 00:40:39;;;;;;;8.60;1.80;;;17.60;78.90;;;;;;5089933;28;20036;-70
2022/09/30 00:43:42;;;;;;;5.30;1.70;;;17.60;78.90;;;;;;5089915;28;20043;-70
2022/09/30 00:46:17;;;;;;;4.28;1.58;;;17.60;78.90;;;;;;5090051;28;20020;-70
2022/09/30 00:48:43;;;;;;;6.10;1.58;;;17.60;79.90;;;;;;5088191;28;20996;-70
2022/09/30 00:51:08;;;;;;;5.47;1.50;;;17.60;79.00;;;;;;5088516;28;20040;-70
2022/09/30 00:53:48;;;;;;;9.57;1.90;;;17.60;79.00;;;;;;5082985;28;20016;-70
2022/09/30 00:56:19;;;;;;;4.40;1.80;;;17.60;79.00;;;;;;5086861;28;20467;-70
2022/09/30 00:58:51;;;;;;;5.32;1.55;;;17.60;79.00;;;;;;5088818;28;20405;-70
2022/09/30 01:01:16;;;;;;;6.65;2.10;;;17.60;79.00;;;;;;5089988;28;20032;-69
2022/09/30 01:03:49;;;;;;;5.80;1.50;;;17.60;79.00;;;;;;5088832;28;20550;-69
2022/09/30 01:06:15;;;;;;;3.97;1.70;;;17.60;79.10;;;;;;5090157;28;20028;-70
2022/09/30 01:08:41;;;;;;;3.80;1.52;;;17.60;79.10;;;;;;5086422;28;20040;-70
2022/09/30 01:11:06;;;;;;;4.03;1.50;;;17.60;79.10;;;;;;5072071;28;20032;-69
2022/09/30 01:13:32;;;;;;;3.40;1.27;;;17.60;79.10;;;;;;5090727;28;20020;-69
2022/09/30 01:16:19;;;;;;;4.63;1.60;;;17.60;79.10;;;;;;5091853;28;20078;-69
2022/09/30 01:18:57;;;;;;;3.63;1.50;;;17.60;79.10;;;;;;5093949;28;20114;-69
2022/09/30 01:21:40;;;;;;;8.82;1.77;;;17.60;79.00;;;;;;5090699;28;20012;-69
2022/09/30 01:24:11;;;;;;;5.80;1.65;;;17.60;79.10;;;;;;5086737;28;20021;-69
2022/09/30 01:27:11;;;;;;;2.93;1.30;;;17.50;79.00;;;;;;5091600;28;20036;-69
2022/09/30 01:30:04;;;;;;;6.57;1.65;;;17.60;79.10;;;;;;5087087;28;20035;-69
2022/09/30 01:32:34;;;;;;;5.70;1.60;;;17.60;79.20;;;;;;5091741;28;20027;-69
2022/09/30 01:35:22;;;;;;;3.25;1.55;;;17.60;79.20;;;;;;5091309;28;20050;-69
2022/09/30 01:38:09;;;;;;;4.00;1.30;;;17.60;79.20;;;;;;5092411;28;20470;-69
2022/09/30 01:40:57;;;;;;;3.10;1.50;;;17.60;79.20;;;;;;5087587;28;20028;-69
2022/09/30 01:43:40;;;;;;;3.17;1.27;;;17.60;79.20;;;;;;5092679;28;20035;-69
2022/09/30 01:46:20;;;;;;;6.70;1.73;;;17.60;79.20;;;;;;5087493;28;20100;-69
2022/09/30 01:48:55;;;;;;;4.00;1.50;;;17.60;79.20;;;;;;5087955;28;20048;-69
2022/09/30 01:51:35;;;;;;;3.15;1.20;;;17.60;79.20;;;;;;5090101;28;20100;-69
2022/09/30 01:54:16;;;;;;;4.43;1.38;;;17.50;79.10;;;;;;5092047;28;20513;-69
2022/09/30 01:56:44;;;;;;;2.58;1.30;;;17.60;79.20;;;;;;5070780;28;20016;-69
2022/09/30 01:59:17;;;;;;;3.67;1.50;;;17.50;79.10;;;;;;5088953;28;20019;-69
2022/09/30 02:01:47;;;;;;;3.20;1.45;;;17.60;79.20;;;;;;5091921;28;20402;-69
2022/09/30 02:04:25;;;;;;;3.33;1.50;;;17.60;79.10;;;;;;5075404;28;20012;-69
2022/09/30 02:06:52;;;;;;;3.30;1.52;;;17.60;79.10;;;;;;5074837;28;20016;-69
2022/09/30 02:09:27;;;;;;;4.65;1.58;;;17.50;79.10;;;;;;5089612;28;20023;-69
2022/09/30 02:11:55;;;;;;;3.85;1.50;;;17.50;79.20;;;;;;5088206;28;20524;-69
2022/09/30 02:14:51;;;;;;;5.43;1.52;;;17.50;79.10;;;;;;5067390;28;20031;-69
2022/09/30 02:17:28;;;;;;;3.08;1.25;;;17.50;79.00;;;;;;5089773;28;20143;-69
2022/09/30 02:20:05;;;;;;;3.22;1.38;;;17.50;79.10;;;;;;5074025;28;20022;-69
2022/09/30 02:22:45;;;;;;;2.45;1.40;;;17.50;79.10;;;;;;5074975;28;20556;-69
2022/09/30 02:25:24;;;;;;;6.60;2.00;;;17.50;79.10;;;;;;5092176;28;20011;-69
2022/09/30 02:27:56;;;;;;;4.03;1.40;;;17.50;79.10;;;;;;5075105;28;20074;-69
2022/09/30 02:30:21;;;;;;;3.65;1.40;;;17.50;79.10;;;;;;5074742;28;20016;-69
2022/09/30 02:33:18;;;;;;;5.35;1.63;;;17.50;79.10;;;;;;5089283;28;20024;-69
2022/09/30 02:35:48;;;;;;;2.88;1.50;;;17.50;79.10;;;;;;5084511;28;20496;-69
2022/09/30 02:38:35;;;;;;;2.40;1.15;;;17.50;79.10;;;;;;5089007;28;20021;-69
2022/09/30 02:41:13;;;;;;;4.85;1.35;;;17.50;79.10;;;;;;5070665;28;20024;-70
2022/09/30 02:43:40;;;;;;;4.38;1.50;;;17.50;79.20;;;;;;5088927;28;20470;-70
2022/09/30 02:46:51;;;;;;;4.85;1.45;;;17.50;79.20;;;;;;5086279;28;20020;-70
2022/09/30 02:49:47;;;;;;;4.43;1.63;;;17.50;79.20;;;;;;5047593;28;20045;-70
2022/09/30 02:52:19;;;;;;;2.53;1.15;;;17.50;79.20;;;;;;5042032;28;20037;-70
2022/09/30 02:54:51;;;;;;;3.67;1.60;;;17.50;79.30;;;;;;5032794;28;20033;-70
2022/09/30 02:57:43;;;;;;;3.72;1.52;;;17.50;79.20;;;;;;5047845;28;20057;-70
2022/09/30 03:00:09;;;;;;;2.63;1.50;;;17.50;79.20;;;;;;5027035;28;20033;-70
2022/09/30 03:02:34;;;;;;;4.50;1.27;;;17.50;79.30;;;;;;5031141;28;20025;-70
2022/09/30 03:05:00;;;;;;;3.42;1.45;;;17.50;79.40;;;;;;5032378;28;20108;-69
2022/09/30 03:07:25;;;;;;;3.47;1.45;;;17.50;79.40;;;;;;5031562;28;20060;-69
2022/09/30 03:09:56;;;;;;;4.22;1.30;;;17.50;79.40;;;;;;5045814;28;20029;-69
2022/09/30 03:12:31;;;;;;;2.17;1.10;;;17.50;79.30;;;;;;5031438;28;20034;-69
2022/09/30 03:15:17;;;;;;;3.33;1.30;;;17.50;79.50;;;;;;5043036;28;20074;-69
2022/09/30 03:18:16;;;;;;;5.25;1.70;;;17.50;79.40;;;;;;5049218;28;20025;-69
2022/09/30 03:21:06;;;;;;;2.30;1.30;;;17.50;79.40;;;;;;5047291;28;20140;-69
2022/09/30 03:24:00;;;;;;;2.97;1.40;;;17.50;79.40;;;;;;5032513;28;20419;-69
2022/09/30 03:26:41;;;;;;;3.45;1.20;;;17.50;79.30;;;;;;5064079;28;20498;-69
2022/09/30 03:29:25;;;;;;;2.63;1.20;;;17.50;79.40;;;;;;5088208;28;20048;-69
2022/09/30 03:32:32;;;;;;;3.95;1.65;;;17.50;79.30;;;;;;5088196;28;20054;-69
2022/09/30 03:35:08;;;;;;;3.40;1.45;;;17.50;79.40;;;;;;5090031;28;20028;-69
2022/09/30 03:37:45;;;;;;;3.75;1.38;;;17.50;79.50;;;;;;5089375;28;20030;-69
2022/09/30 03:40:51;;;;;;;3.85;1.33;;;17.50;79.50;;;;;;5070134;28;20012;-69
2022/09/30 03:43:19;;;;;;;3.08;1.55;;;17.50;79.50;;;;;;5029724;28;20053;-69
2022/09/30 03:46:04;;;;;;;5.82;1.60;;;17.50;79.50;;;;;;5031142;28;20040;-69
2022/09/30 03:48:29;;;;;;;3.33;1.38;;;17.40;79.50;;;;;;5012908;28;20034;-69
2022/09/30 03:50:55;;;;;;;4.60;1.40;;;17.40;79.50;;;;;;5011847;28;20045;-69
2022/09/30 03:53:20;;;;;;;3.58;1.45;;;17.50;79.50;;;;;;5028929;28;20372;-69
2022/09/30 03:55:48;;;;;;;1.70;1.30;;;17.40;79.50;;;;;;5030843;28;20026;-69
2022/09/30 03:58:15;;;;;;;3.78;2.03;;;17.40;79.50;;;;;;5016384;28;20038;-69
2022/09/30 04:00:48;;;;;;;3.35;1.25;;;17.40;79.60;;;;;;5012402;28;20026;-69
2022/09/30 04:03:14;;;;;;;4.32;1.52;;;17.40;79.50;;;;;;5012193;28;20041;-69
2022/09/30 04:05:40;;;;;;;3.85;1.50;;;17.50;79.70;;;;;;5030697;28;20600;-69
2022/09/30 04:08:05;;;;;;;4.32;1.33;;;17.40;79.60;;;;;;5028659;28;20059;-69
2022/09/30 04:10:31;;;;;;;4.13;1.58;;;17.50;79.60;;;;;;5030497;28;20450;-69
2022/09/30 04:12:57;;;;;;;3.70;1.80;;;17.50;79.60;;;;;;5028449;28;20030;-69
2022/09/30 04:15:23;;;;;;;3.28;1.45;;;17.40;79.50;;;;;;5030481;28;20432;-69
2022/09/30 04:17:48;;;;;;;2.17;1.38;;;17.40;79.50;;;;;;5073043;28;20150;-69
2022/09/30 04:20:14;;;;;;;2.70;1.35;;;17.50;79.60;;;;;;5088296;28;20428;-69
2022/09/30 04:22:39;;;;;;;2.30;1.40;;;17.40;79.50;;;;;;5090635;28;20028;-69
2022/09/30 04:25:06;;;;;;;3.97;1.50;;;17.40;79.50;;;;;;5091382;28;20410;-69
2022/09/30 04:27:31;;;;;;;3.92;1.50;;;17.40;79.50;;;;;;5086895;28;20222;-69
2022/09/30 04:29:57;;;;;;;4.57;1.58;;;17.40;79.50;;;;;;5087785;28;20027;-69
2022/09/30 04:32:24;;;;;;;4.55;1.25;;;17.40;79.50;;;;;;5088833;28;20019;-69
2022/09/30 04:34:50;;;;;;;2.28;1.33;;;17.40;79.60;;;;;;5088385;28;20050;-69
2022/09/30 04:37:16;;;;;;;2.17;1.20;;;17.40;79.60;;;;;;5090259;28;20028;-69
2022/09/30 04:39:43;;;;;;;1.65;1.20;;;17.40;79.50;;;;;;5090419;28;20024;-69
2022/09/30 04:42:08;;;;;;;2.42;1.30;;;17.40;79.50;;;;;;5090309;28;20013;-69
2022/09/30 04:44:34;;;;;;;1.40;1.13;;;17.40;79.50;;;;;;5086464;28;20020;-69
2022/09/30 04:47:00;;;;;;;2.75;1.17;;;17.40;79.50;;;;;;5088825;28;20036;-69
2022/09/30 04:49:25;;;;;;;3.90;1.50;;;17.40;79.50;;;;;;5090092;28;20068;-69
2022/09/30 04:51:51;;;;;;;1.83;1.33;;;17.40;79.60;;;;;;5086317;28;20087;-69
2022/09/30 04:54:17;;;;;;;1.80;1.08;;;17.40;80.50;;;;;;5088038;28;20421;-69
2022/09/30 04:56:43;;;;;;;2.05;1.23;;;17.40;79.50;;;;;;5088938;28;20040;-69
2022/09/30 04:59:08;;;;;;;2.33;1.55;;;17.40;79.50;;;;;;5090189;28;20588;-69
2022/09/30 05:01:34;;;;;;;3.10;1.27;;;17.40;79.50;;;;;;5088156;28;20027;-69
2022/09/30 05:04:00;;;;;;;2.08;1.15;;;17.40;79.50;;;;;;5088566;28;20024;-69
2022/09/30 05:06:26;;;;;;;3.67;1.35;;;17.40;79.50;;;;;;5086398;28;20044;-69
2022/09/30 05:08:51;;;;;;;2.80;1.40;;;17.40;79.60;;;;;;5088011;28;20486;-69
2022/09/30 05:11:19;;;;;;;2.90;1.33;;;17.40;79.60;;;;;;5089722;28;20056;-69
2022/09/30 05:13:45;;;;;;;2.92;1.25;;;17.40;79.60;;;;;;5087929;28;20363;-69
2022/09/30 05:16:11;;;;;;;3.28;1.38;;;17.40;79.60;;;;;;5088883;28;20102;-69
2022/09/30 05:18:38;;;;;;;1.50;1.20;;;17.40;79.50;;;;;;5081435;28;20032;-69
2022/09/30 05:21:04;;;;;;;1.88;1.10;;;17.40;79.50;;;;;;5084853;28;20043;-69
2022/09/30 05:23:30;;;;;;;1.42;1.13;;;17.40;79.50;;;;;;5086146;28;20486;-69
2022/09/30 05:25:56;;;;;;;3.45;1.35;;;17.40;79.50;;;;;;5071231;28;20490;-69
2022/09/30 05:28:21;;;;;;;1.90;0.98;;;17.40;79.50;;;;;;5087196;28;20024;-69
2022/09/30 05:30:48;;;;;;;1.83;1.20;;;17.40;79.50;;;;;;5083172;28;20241;-69
2022/09/30 05:33:14;;;;;;;2.20;1.30;;;17.40;79.50;;;;;;5088479;28;20474;-69
2022/09/30 05:35:40;;;;;;;2.33;1.30;;;17.30;80.40;;;;;;5084878;28;20021;-69
2022/09/30 05:38:06;;;;;;;3.15;1.50;;;17.40;79.50;;;;;;5089815;28;20020;-69
2022/09/30 05:40:31;;;;;;;2.78;1.55;;;17.40;79.50;;;;;;5082520;28;20027;-69
2022/09/30 05:42:57;;;;;;;1.55;1.20;;;17.40;79.50;;;;;;5089694;28;20024;-69
2022/09/30 05:45:23;;;;;;;2.33;1.25;;;17.30;79.40;;;;;;5089675;28;20004;-69
2022/09/30 05:47:52;;;;;;;1.77;1.02;;;17.40;79.60;;;;;;5086238;28;20387;-69
2022/09/30 05:50:19;;;;;;;2.30;1.40;;;17.40;79.60;;;;;;5086309;28;20482;-69
2022/09/30 05:52:45;;;;;;;5.40;1.55;;;17.30;79.60;;;;;;5086339;28;20054;-70
2022/09/30 05:55:10;;;;;;;4.63;1.48;;;17.30;79.70;;;;;;5088305;28;20478;-70
2022/09/30 05:57:36;;;;;;;1.25;1.13;;;17.40;79.40;;;;;;5086678;28;20017;-69
2022/09/30 06:00:03;;;;;;;1.63;1.33;;;17.40;79.30;;;;;;5092872;28;20375;-69
2022/09/30 06:02:28;;;;;;;4.57;1.20;;;17.40;78.80;;;;;;5088697;28;20078;-70
2022/09/30 06:04:54;;;;;;;1.05;0.98;;;17.30;78.60;;;;;;5093240;28;20020;-70
2022/09/30 06:07:19;;;;;;;2.28;1.20;;;17.30;78.50;;;;;;5090835;28;20140;-70
2022/09/30 06:09:45;;;;;;;2.75;1.10;;;17.30;78.50;;;;;;5093062;28;20024;-70
2022/09/30 06:12:11;;;;;;;3.85;1.40;;;17.30;78.50;;;;;;5090920;28;20387;-70
2022/09/30 06:14:36;;;;;;;2.47;1.35;;;17.30;78.40;;;;;;5090973;28;20024;-71
2022/09/30 06:17:02;;;;;;;1.25;1.10;;;17.30;78.30;;;;;;5090563;28;20095;-70
2022/09/30 06:19:29;;;;;;;1.38;1.10;;;17.30;78.20;;;;;;5087481;28;20023;-70
2022/09/30 06:21:58;;;;;;;1.95;1.30;;;17.20;78.20;;;;;;5093057;28;20020;-70
2022/09/30 06:24:23;;;;;;;2.17;1.15;;;17.20;78.10;;;;;;5092799;28;20112;-70
2022/09/30 06:26:49;;;;;;;1.70;1.20;;;17.20;78.00;;;;;;5092091;28;20488;-70
2022/09/30 06:29:15;;;;;;;2.53;1.00;;;17.20;78.00;;;;;;5090598;28;20028;-70
2022/09/30 06:31:40;;;;;;;1.15;1.00;;;17.20;77.90;;;;;;5092395;28;20107;-70
2022/09/30 06:34:07;;;;;;;1.63;1.15;;;17.20;77.90;;;;;;5091443;28;20051;-70
2022/09/30 06:36:32;;;;;;;1.65;1.50;;;17.20;77.90;;;;;;5092435;28;20028;-70
2022/09/30 06:39:01;;;;;;;1.20;1.10;;;17.20;77.90;;;;;;5086414;28;20024;-70
2022/09/30 06:41:27;;;;;;;0.85;0.80;;;17.20;77.90;;;;;;5092573;28;20062;-70
2022/09/30 06:43:54;;;;;;;1.80;1.27;;;17.20;77.80;;;;;;5089053;28;20048;-69
2022/09/30 06:46:22;;;;;;;1.27;1.15;;;17.20;78.80;;;;;;5092218;28;20031;-69
2022/09/30 06:48:51;;;;;;;1.40;1.00;;;17.20;77.70;;;;;;5092277;28;20397;-70
2022/09/30 06:51:17;;;;;;;2.50;1.30;;;17.10;77.70;;;;;;5089852;28;20048;-73
2022/09/30 06:53:43;;;;;;;50.92;7.00;;;17.10;77.70;;;;;;5088795;28;20023;-71
2022/09/30 06:56:08;;;;;;;34.17;5.82;;;17.10;77.80;;;;;;5093026;28;20028;-72
2022/09/30 06:58:34;;;;;;;49.63;5.28;;;17.20;78.30;;;;;;5092508;28;20020;-72
2022/09/30 07:01:04;;;;;;;47.85;6.32;;;17.10;78.60;;;;;;5092895;28;20402;-71
2022/09/30 07:03:31;;;;;;;45.78;6.32;;;17.20;78.90;;;;;;5091811;28;20502;-71
2022/09/30 07:05:58;;;;;;;51.03;6.60;;;17.20;79.00;;;;;;5092715;28;20036;-71
2022/09/30 07:08:24;;;;;;;43.67;6.80;;;17.10;79.10;;;;;;5092879;28;20035;-71
2022/09/30 07:10:51;;;;;;;32.33;5.80;;;17.20;79.30;;;;;;5075737;28;20079;-71
2022/09/30 07:13:17;;;;;;;48.28;6.93;;;17.20;79.40;;;;;;5092404;28;20094;-71
2022/09/30 07:15:43;;;;;;;36.45;6.68;;;17.20;79.30;;;;;;5092817;28;20099;-71
2022/09/30 07:18:09;;;;;;;39.08;7.05;;;17.20;79.50;;;;;;5093946;28;20052;-71
2022/09/30 07:20:34;;;;;;;37.70;6.93;;;17.20;79.30;;;;;;5092634;28;20095;-71
2022/09/30 07:23:00;;;;;;;45.83;6.38;;;17.20;79.50;;;;;;5094086;28;20026;-71
2022/09/30 07:25:26;;;;;;;43.92;6.88;;;17.20;79.40;;;;;;5099151;28;20015;-71
2022/09/30 07:27:53;;;;;;;39.50;6.38;;;17.20;79.50;;;;;;5113977;28;20041;-71
2022/09/30 07:30:19;;;;;;;45.25;6.82;;;17.20;79.50;;;;;;5114084;28;20016;-71
2022/09/30 07:32:45;;;;;;;41.25;7.13;;;17.20;79.40;;;;;;5114013;28;20615;-71
2022/09/30 07:35:11;;;;;;;39.65;6.43;;;17.20;79.40;;;;;;5113859;28;20069;-71
2022/09/30 07:37:37;;;;;;;30.17;6.32;;;17.20;79.40;;;;;;5113914;28;20026;-71
2022/09/30 07:40:04;;;;;;;37.22;5.88;;;17.20;79.30;;;;;;5095953;28;20382;-71
2022/09/30 07:42:30;;;;;;;38.38;6.55;;;17.20;79.30;;;;;;5078572;28;20383;-71
2022/09/30 07:44:56;;;;;;;31.70;6.70;;;17.20;79.30;;;;;;5113846;28;20065;-71
2022/09/30 07:47:22;;;;;;;36.33;6.55;;;17.20;79.20;;;;;;5113690;28;20031;-71
2022/09/30 07:49:48;;;;;;;33.13;6.70;;;17.20;79.30;;;;;;5113669;28;20032;-71
2022/09/30 07:52:13;;;;;;;33.28;6.25;;;17.20;79.20;;;;;;5098367;28;20051;-71
2022/09/30 07:54:39;;;;;;;34.47;6.53;;;17.20;79.30;;;;;;5093278;28;20020;-71
2022/09/30 07:57:05;;;;;;;29.15;6.43;;;17.20;79.20;;;;;;5093162;28;20031;-71
2022/09/30 07:59:32;;;;;;;32.70;6.07;;;17.20;79.30;;;;;;5091965;28;20016;-71
2022/09/30 08:01:58;;;;;;;29.95;5.72;;;17.20;79.20;;;;;;5091989;28;20089;-71
2022/09/30 08:04:24;;;;;;;28.38;6.10;;;17.20;79.10;;;;;;5091884;28;20020;-71
2022/09/30 08:06:52;;;;;;;29.38;5.60;;;17.20;79.10;;;;;;5093134;28;20038;-71
2022/09/30 08:09:19;;;;;;;22.75;5.93;;;17.20;79.00;;;;;;5075178;28;20016;-71
2022/09/30 08:11:45;;;;;;;27.90;6.10;;;17.20;79.20;;;;;;5074620;28;20540;-71
2022/09/30 08:14:15;;;;;;;24.83;4.90;;;17.20;79.10;;;;;;5091822;28;20028;-71
2022/09/30 08:16:41;;;;;;;25.70;5.90;;;17.20;79.20;;;;;;5091894;28;20047;-71
2022/09/30 08:19:10;;;;;;;26.15;6.00;;;17.20;79.10;;;;;;5074975;28;20052;-71
2022/09/30 08:21:35;;;;;;;24.50;5.07;;;17.20;79.20;;;;;;5091248;28;20375;-71
2022/09/30 08:24:02;;;;;;;27.83;6.25;;;17.20;79.10;;;;;;5092800;28;20061;-71
2022/09/30 08:26:28;;;;;;;19.27;5.22;;;17.20;79.00;;;;;;5106533;28;20111;-71
2022/09/30 08:28:53;;;;;;;24.98;5.25;;;17.20;79.00;;;;;;5094889;28;20106;-71
2022/09/30 08:31:21;;;;;;;27.08;6.35;;;17.20;79.00;;;;;;5112867;28;20019;-71
2022/09/30 08:33:46;;;;;;;18.88;5.22;;;17.20;79.00;;;;;;5112998;28;20034;-71
2022/09/30 08:36:14;;;;;;;22.10;5.03;;;17.20;79.00;;;;;;5113143;28;20024;-71
2022/09/30 08:38:40;;;;;;;21.73;5.03;;;17.20;79.10;;;;;;5111491;28;20382;-71
2022/09/30 08:41:24;;;;;;;22.83;4.30;;;17.20;79.00;;;;;;5094705;28;20019;-71
2022/09/30 08:44:11;;;;;;;20.20;5.93;;;17.20;79.10;;;;;;5112917;28;20469;-71
2022/09/30 08:46:49;;;;;;;15.90;4.28;;;17.20;79.10;;;;;;5112678;28;20024;-71
2022/09/30 08:49:43;;;;;;;18.35;4.57;;;17.20;79.10;;;;;;5111803;28;20073;-71
2022/09/30 08:52:21;;;;;;;16.52;4.70;;;17.20;79.00;;;;;;5097081;28;20040;-71
2022/09/30 08:54:50;;;;;;;21.52;4.43;;;17.30;79.10;;;;;;5091115;28;20493;-71
2022/09/30 08:57:16;;;;;;;18.25;4.30;;;17.20;79.00;;;;;;5091194;28;20020;-71
2022/09/30 08:59:44;;;;;;;15.10;4.22;;;17.30;79.10;;;;;;5091073;28;20020;-71
2022/09/30 09:02:20;;;;;;;12.73;4.30;;;17.30;79.00;;;;;;5074567;28;20440;-71
2022/09/30 09:04:47;;;;;;;16.67;4.40;;;17.20;79.00;;;;;;5091240;28;20032;-71
2022/09/30 09:07:18;;;;;;;20.33;4.15;;;17.30;79.10;;;;;;5074194;28;20020;-71
2022/09/30 09:09:56;;;;;;;16.73;4.72;;;17.30;79.00;;;;;;5090876;28;20024;-71
2022/09/30 09:12:47;;;;;;;13.60;3.83;;;17.30;79.30;;;;;;5091083;28;20036;-71
2022/09/30 09:15:49;;;;;;;19.10;4.63;;;17.30;79.00;;;;;;5090958;28;20082;-71
2022/09/30 09:18:40;;;;;;;21.83;4.55;;;17.30;79.10;;;;;;5092252;28;20024;-71
2022/09/30 09:21:21;;;;;;;16.70;4.15;;;17.30;79.10;;;;;;5091873;28;20044;-71
2022/09/30 09:23:48;;;;;;;18.08;3.85;;;17.30;79.10;;;;;;5091869;28;20047;-71
2022/09/30 09:26:13;;;;;;;15.48;3.97;;;17.30;79.00;;;;;;5103014;28;20486;-71
2022/09/30 09:29:07;;;;;;;18.52;4.00;;;17.30;79.00;;;;;;5111237;28;20111;-71
2022/09/30 09:31:33;;;;;;;15.82;4.22;;;17.30;78.90;;;;;;5112324;28;20031;-71
2022/09/30 09:34:00;;;;;;;13.73;3.45;;;17.30;79.00;;;;;;5113021;28;20059;-71
2022/09/30 09:36:45;;;;;;;12.40;4.00;;;17.30;79.00;;;;;;5098286;28;20104;-71
2022/09/30 09:39:13;;;;;;;11.07;3.55;;;17.30;79.00;;;;;;5116136;28;20016;-71
2022/09/30 09:41:59;;;;;;;14.88;3.85;;;17.30;79.00;;;;;;5116090;28;20374;-71
2022/09/30 09:44:53;;;;;;;17.63;3.83;;;17.30;79.00;;;;;;5053279;28;20159;-71
2022/09/30 09:47:19;;;;;;;15.40;4.13;;;17.30;79.00;;;;;;5036739;28;20032;-71
2022/09/30 09:49:45;;;;;;;14.38;3.65;;;17.30;79.10;;;;;;5036783;28;20568;-71
2022/09/30 09:52:11;;;;;;;12.73;3.67;;;17.40;79.00;;;;;;5007983;28;20050;-71
2022/09/30 09:54:47;;;;;;;13.52;3.97;;;17.40;79.10;;;;;;5013059;28;20032;-71
2022/09/30 09:57:24;;;;;;;12.15;3.50;;;17.40;79.00;;;;;;5013631;28;20026;-71
2022/09/30 09:59:58;;;;;;;15.68;4.00;;;17.40;79.00;;;;;;5013376;28;20026;-71
2022/09/30 10:02:28;;;;;;;12.48;3.40;;;17.40;79.00;;;;;;5013406;28;20049;-71
2022/09/30 10:05:02;;;;;;;13.63;3.95;;;17.30;78.90;;;;;;5013440;28;20473;-71
2022/09/30 10:07:29;;;;;;;11.35;3.28;;;17.40;79.00;;;;;;5013199;28;20065;-71
2022/09/30 10:10:06;;;;;;;9.70;3.53;;;17.40;79.00;;;;;;5013124;28;20049;-71
2022/09/30 10:12:32;;;;;;;12.95;3.60;;;17.40;79.00;;;;;;5013142;28;20029;-71
2022/09/30 10:14:59;;;;;;;11.55;3.38;;;17.40;79.00;;;;;;5013111;28;20034;-71
2022/09/30 10:17:29;;;;;;;8.23;2.65;;;17.40;79.00;;;;;;5013219;28;20033;-71
2022/09/30 10:20:05;;;;;;;14.00;3.92;;;17.40;79.00;;;;;;5013054;28;20092;-71
2022/09/30 10:22:31;;;;;;;11.75;3.05;;;17.40;78.90;;;;;;5069445;28;20047;-71
2022/09/30 10:25:21;;;;;;;9.63;3.25;;;17.40;78.90;;;;;;5059875;28;20103;-71
2022/09/30 10:27:53;;;;;;;14.68;3.60;;;17.40;78.90;;;;;;5107602;28;20493;-71
2022/09/30 10:30:37;;;;;;;11.32;3.33;;;17.40;78.90;;;;;;5115336;28;20027;-71
2022/09/30 10:33:03;;;;;;;9.85;3.33;;;17.40;78.80;;;;;;5114274;28;20055;-71
2022/09/30 10:35:30;;;;;;;10.25;3.00;;;17.40;78.90;;;;;;5114253;28;20027;-71
2022/09/30 10:37:56;;;;;;;9.77;2.83;;;17.40;78.90;;;;;;5113779;28;20517;-71
2022/09/30 10:40:26;;;;;;;9.93;2.90;;;17.40;78.90;;;;;;5097081;28;20106;-71
2022/09/30 10:42:52;;;;;;;11.90;3.08;;;17.40;78.90;;;;;;5097345;28;20030;-71
2022/09/30 10:45:23;;;;;;;10.48;3.33;;;17.40;78.80;;;;;;5114689;28;20039;-71
2022/09/30 10:47:51;;;;;;;9.82;3.13;;;17.50;79.00;;;;;;5097514;28;20493;-71
2022/09/30 10:50:19;;;;;;;11.35;3.00;;;17.50;79.00;;;;;;5113646;28;20398;-71
2022/09/30 10:52:55;;;;;;;8.88;2.95;;;17.50;78.90;;;;;;5077052;28;20021;-71
2022/09/30 10:55:21;;;;;;;9.10;3.28;;;17.50;78.80;;;;;;5093168;28;20016;-71
2022/09/30 10:57:47;;;;;;;8.07;2.88;;;17.50;78.80;;;;;;5094387;28;20099;-71
2022/09/30 11:00:21;;;;;;;11.35;2.72;;;17.50;78.80;;;;;;5093329;28;20024;-71
2022/09/30 11:03:05;;;;;;;12.77;3.17;;;17.50;78.90;;;;;;5077407;28;20020;-71
2022/09/30 11:05:34;;;;;;;7.50;2.90;;;17.50;78.80;;;;;;5077109;28;20103;-71
2022/09/30 11:08:18;;;;;;;7.22;3.00;;;17.50;78.80;;;;;;5094215;28;20032;-71
2022/09/30 11:10:45;;;;;;;8.80;2.90;;;17.50;78.80;;;;;;5094138;28;20028;-71
2022/09/30 11:13:23;;;;;;;10.07;2.50;;;17.40;78.70;;;;;;5092993;28;20020;-71
2022/09/30 11:15:59;;;;;;;8.07;2.50;;;17.50;78.80;;;;;;5076613;28;20031;-71
2022/09/30 11:18:30;;;;;;;7.00;2.80;;;17.50;78.70;;;;;;5094081;28;20031;-71
2022/09/30 11:21:05;;;;;;;8.05;2.75;;;17.50;78.70;;;;;;5075930;28;20146;-71
2022/09/30 11:23:43;;;;;;;6.90;2.40;;;17.50;78.70;;;;;;5092821;28;20517;-71
2022/09/30 11:26:24;;;;;;;10.52;2.63;;;17.50;78.70;;;;;;5087919;28;20041;-71
2022/09/30 11:29:11;;;;;;;7.40;2.50;;;17.50;78.70;;;;;;5114186;28;20023;-71
2022/09/30 11:31:55;;;;;;;7.68;2.70;;;17.50;78.70;;;;;;5113895;28;20055;-71
2022/09/30 11:34:25;;;;;;;7.00;2.45;;;17.50;78.70;;;;;;5113910;28;20089;-71
2022/09/30 11:37:16;;;;;;;8.57;2.50;;;17.50;79.70;;;;;;5114087;28;20041;-71
2022/09/30 11:39:56;;;;;;;6.82;2.25;;;17.50;78.70;;;;;;5112626;28;20076;-71
2022/09/30 11:42:31;;;;;;;5.10;2.60;;;17.50;78.70;;;;;;5114006;28;20034;-71
2022/09/30 11:45:12;;;;;;;8.52;2.40;;;17.50;78.70;;;;;;5112629;28;20023;-71
2022/09/30 11:47:43;;;;;;;6.22;2.45;;;17.50;78.70;;;;;;5113765;28;20030;-71
2022/09/30 11:50:22;;;;;;;6.72;2.42;;;17.50;78.70;;;;;;5113573;28;20023;-71
2022/09/30 11:52:50;;;;;;;9.52;2.78;;;17.50;78.60;;;;;;5092527;28;20032;-71
2022/09/30 11:55:47;;;;;;;6.50;2.08;;;17.50;78.70;;;;;;5093277;28;20031;-71
2022/09/30 11:58:15;;;;;;;6.70;1.95;;;17.60;78.60;;;;;;5092117;28;20031;-71
2022/09/30 12:00:43;;;;;;;7.18;2.60;;;17.50;79.60;;;;;;5092323;28;20035;-71
2022/09/30 12:03:17;;;;;;;5.97;2.20;;;17.50;78.60;;;;;;5075094;28;20028;-71
2022/09/30 12:05:48;;;;;;;6.43;2.35;;;17.50;78.50;;;;;;5093057;28;20046;-71
2022/09/30 12:08:27;;;;;;;8.65;2.78;;;17.50;78.50;;;;;;5075515;28;20032;-71
2022/09/30 12:11:03;;;;;;;6.00;2.28;;;17.60;78.60;;;;;;5091867;28;20043;-71
2022/09/30 12:13:30;;;;;;;4.40;2.65;;;17.60;78.60;;;;;;5092045;28;20024;-71
2022/09/30 12:15:56;;;;;;;5.70;1.83;;;17.60;78.60;;;;;;5075043;28;20102;-71
2022/09/30 12:18:43;;;;;;;4.53;2.00;;;17.60;78.60;;;;;;5074779;28;20022;-71
2022/09/30 12:21:14;;;;;;;4.20;2.35;;;17.60;78.50;;;;;;5075374;28;20049;-71
2022/09/30 12:23:45;;;;;;;4.38;2.10;;;17.60;78.60;;;;;;5091849;28;20035;-71
2022/09/30 12:26:11;;;;;;;5.90;2.30;;;17.60;78.50;;;;;;5086788;28;20062;-71
2022/09/30 12:31:30;;;;;;;;;;;17.60;78.50;;;;;;5112586;28;20116;-71
2022/09/30 12:34:30;;;;;;;10.23;2.40;;;17.60;78.50;;;;;;5112588;28;19911;-71
2022/09/30 12:37:14;;;;;;;5.70;2.38;;;17.60;78.50;;;;;;5112951;28;20025;-71
2022/09/30 12:39:44;;;;;;;5.57;2.38;;;17.60;78.50;;;;;;5112832;28;20512;-71
2022/09/30 12:42:24;;;;;;;5.90;2.67;;;17.60;78.50;;;;;;5111767;28;20027;-71
2022/09/30 12:45:17;;;;;;;4.78;1.90;;;17.60;78.50;;;;;;5112877;28;20076;-71
2022/09/30 12:47:48;;;;;;;6.30;1.98;;;17.60;78.40;;;;;;5112737;28;20092;-71
2022/09/30 12:50:15;;;;;;;4.78;2.10;;;17.60;78.40;;;;;;5112733;28;20046;-71
2022/09/30 12:52:41;;;;;;;4.75;2.15;;;17.60;78.50;;;;;;5075985;28;20020;-71
2022/09/30 12:55:19;;;;;;;7.35;1.95;;;17.60;78.50;;;;;;5092300;28;20592;-71
2022/09/30 12:57:45;;;;;;;6.80;1.92;;;17.60;78.50;;;;;;5091131;28;20391;-71
2022/09/30 13:00:15;;;;;;;6.40;2.30;;;17.60;78.40;;;;;;5074649;28;20020;-71
2022/09/30 13:02:43;;;;;;;5.32;1.83;;;17.60;78.30;;;;;;5091256;28;20050;-71
2022/09/30 13:05:29;;;;;;;5.85;2.10;;;17.60;78.40;;;;;;5074506;28;20020;-71
2022/09/30 13:08:03;;;;;;;4.88;1.90;;;17.60;78.30;;;;;;5071425;28;20052;-71
2022/09/30 13:10:33;;;;;;;5.15;1.90;;;17.60;78.30;;;;;;5074338;28;20033;-71